KHPT/HPT METAR and TAF weather

Enter ICAO airport designator
Station Type Date Time Source
KHPT METAR 2020/07/11 00:35 UTC NOAA

KHPT 110035Z AUTO 36004KT 10SM CLR 27/20 A2997 RMK AO2


Station Type Date Time Source
KHPT Decoded METAR 2020/07/11 00:35 UTC NOAA

Station name not available
Jul 10, 2020 - 08:35 PM EDT / 2020.07.11 0035 UTC
Wind: from the N (360 degrees) at 5 MPH (4 KT):0
Visibility: 10 mile(s):0
Sky conditions: clear
Temperature: 80 F (27 C)
Dew Point: 68 F (20 C)
Relative Humidity: 65%
Pressure (altimeter): 29.97 in. Hg (1014 hPa)
ob: KHPT 110035Z AUTO 36004KT 10SM CLR 27/20 A2997 RMK AO2
cycle: 0

Station Type Date Time Source
KHPT TAF UTC NOAA

Error!

Example: see airport list